Time;durP1;ratioP1;P1;durP2;ratioP2;P2;SDS_P1;SDS_P2;PMS_P1;PMS_P2;Temp;Humidity;BMP_temperature;BMP_pressure;BME280_temperature;BME280_humidity;BME280_pressure;Samples;Min_cycle;Max_cycle;Signal;HPM_P1;HPM_P2
2022/05/11 00:00:31;;;;;;;16.90;10.27;;;;;;;;;;5058813;28;20071;-84
2022/05/11 00:02:57;;;;;;;17.20;10.43;;;;;;;;;;5059898;28;20044;-84
2022/05/11 00:05:24;;;;;;;18.63;10.77;;;;;;;;;;5057525;28;20064;-83
2022/05/11 00:07:50;;;;;;;25.98;12.10;;;;;;;;;;5042013;28;20045;-82
2022/05/11 00:10:16;;;;;;;19.00;11.63;;;;;;;;;;5059143;28;20062;-83
2022/05/11 00:12:43;;;;;;;18.25;11.52;;;;;;;;;;5061020;28;20039;-84
2022/05/11 00:15:10;;;;;;;18.48;11.63;;;;;;;;;;5040353;28;20504;-83
2022/05/11 00:17:36;;;;;;;16.23;11.02;;;;;;;;;;5039975;28;20048;-83
2022/05/11 00:20:03;;;;;;;18.73;11.27;;;;;;;;;;5058294;28;20029;-82
2022/05/11 00:22:29;;;;;;;16.13;11.43;;;;;;;;;;5060105;28;20121;-83
2022/05/11 00:24:55;;;;;;;18.70;11.75;;;;;;;;;;5058017;28;20132;-83
2022/05/11 00:27:21;;;;;;;16.80;11.48;;;;;;;;;;5059860;28;20048;-83
2022/05/11 00:29:50;;;;;;;17.17;12.27;;;;;;;;;;5040968;28;20098;-85
2022/05/11 00:32:17;;;;;;;19.80;11.95;;;;;;;;;;5040560;28;20075;-84
2022/05/11 00:34:43;;;;;;;23.63;11.50;;;;;;;;;;5058939;28;20044;-83
2022/05/11 00:37:09;;;;;;;20.88;10.70;;;;;;;;;;5040967;28;20052;-83
2022/05/11 00:39:35;;;;;;;19.77;11.95;;;;;;;;;;5059620;28;20060;-84
2022/05/11 00:42:02;;;;;;;20.33;10.85;;;;;;;;;;5058435;28;20100;-84
2022/05/11 00:44:28;;;;;;;18.38;11.05;;;;;;;;;;5041492;28;20048;-83
2022/05/11 00:46:57;;;;;;;18.67;11.75;;;;;;;;;;5057849;28;20571;-84
2022/05/11 00:49:38;;;;;;;22.00;12.00;;;;;;;;;;5056742;28;20053;-83
2022/05/11 00:52:16;;;;;;;21.10;12.23;;;;;;;;;;5058408;28;20457;-84
2022/05/11 00:54:51;;;;;;;21.33;10.93;;;;;;;;;;5056229;28;20055;-84
2022/05/11 00:57:23;;;;;;;20.20;11.00;;;;;;;;;;5058947;28;20065;-82
2022/05/11 00:59:53;;;;;;;22.00;11.45;;;;;;;;;;5041205;28;20048;-81
2022/05/11 01:02:20;;;;;;;18.02;11.63;;;;;;;;;;5044824;28;20036;-83
2022/05/11 01:04:46;;;;;;;16.63;11.75;;;;;;;;;;5061270;28;20135;-84
2022/05/11 01:07:13;;;;;;;22.15;12.25;;;;;;;;;;5065227;28;20032;-83
2022/05/11 01:09:40;;;;;;;18.30;10.77;;;;;;;;;;5047559;28;20040;-84
2022/05/11 01:12:08;;;;;;;18.25;10.98;;;;;;;;;;5055389;28;20392;-83
2022/05/11 01:14:38;;;;;;;18.88;11.60;;;;;;;;;;5044879;28;20044;-83
2022/05/11 01:17:04;;;;;;;20.40;12.65;;;;;;;;;;5063093;28;20443;-83
2022/05/11 01:19:32;;;;;;;22.48;12.10;;;;;;;;;;5066511;28;20044;-84
2022/05/11 01:22:03;;;;;;;21.75;11.48;;;;;;;;;;5068949;28;20035;-81
2022/05/11 01:24:39;;;;;;;17.10;11.43;;;;;;;;;;5072400;28;20512;-83
2022/05/11 01:27:23;;;;;;;23.00;12.80;;;;;;;;;;5069214;28;20051;-84
2022/05/11 01:29:51;;;;;;;18.70;11.07;;;;;;;;;;5063032;28;20036;-84
2022/05/11 01:32:17;;;;;;;19.90;11.23;;;;;;;;;;5030449;28;20040;-84
2022/05/11 01:34:43;;;;;;;21.45;12.27;;;;;;;;;;5060816;28;20045;-83
2022/05/11 01:37:09;;;;;;;17.92;11.20;;;;;;;;;;5063119;28;20131;-82
2022/05/11 01:39:35;;;;;;;17.90;11.57;;;;;;;;;;5061658;28;20055;-81
2022/05/11 01:42:01;;;;;;;21.13;10.90;;;;;;;;;;5043401;28;20094;-82
2022/05/11 01:44:27;;;;;;;16.02;11.10;;;;;;;;;;5059946;28;20097;-81
2022/05/11 01:46:57;;;;;;;15.88;10.82;;;;;;;;;;5043113;28;20049;-83
2022/05/11 01:49:24;;;;;;;22.80;11.40;;;;;;;;;;5063140;28;20090;-84
2022/05/11 01:51:51;;;;;;;17.10;10.82;;;;;;;;;;5060451;28;20058;-82
2022/05/11 01:54:17;;;;;;;14.55;9.80;;;;;;;;;;5061605;28;20049;-82
2022/05/11 01:56:43;;;;;;;19.60;10.25;;;;;;;;;;5027673;28;20048;-82
2022/05/11 01:59:09;;;;;;;16.08;10.25;;;;;;;;;;5041419;28;20130;-82
2022/05/11 02:01:39;;;;;;;18.33;11.88;;;;;;;;;;5059513;28;20071;-82
2022/05/11 02:07:49;;;;;;;18.08;11.23;;;;;;;;;;5042623;28;20627;-82
2022/05/11 02:09:43;;;;;;;17.70;10.73;;;;;;;;;;5060454;28;20109;-83
2022/05/11 02:12:10;;;;;;;17.15;11.55;;;;;;;;;;5061788;28;20064;-81
2022/05/11 02:14:36;;;;;;;19.08;11.90;;;;;;;;;;5060035;28;20536;-81
2022/05/11 02:17:02;;;;;;;18.27;12.10;;;;;;;;;;5061010;28;20098;-81
2022/05/11 02:19:32;;;;;;;19.33;11.90;;;;;;;;;;5042662;28;20051;-81
2022/05/11 02:21:58;;;;;;;23.13;12.55;;;;;;;;;;5026296;28;20058;-83
2022/05/11 02:24:24;;;;;;;16.58;11.40;;;;;;;;;;5035901;28;20061;-80
2022/05/11 02:26:50;;;;;;;17.85;11.55;;;;;;;;;;5035694;28;20847;-81
2022/05/11 02:29:16;;;;;;;20.55;11.50;;;;;;;;;;5039451;28;20134;-82
2022/05/11 02:31:42;;;;;;;15.40;10.65;;;;;;;;;;5041479;28;20028;-82
2022/05/11 02:35:12;;;;;;;19.00;11.35;;;;;;;;;;5039718;28;20501;-81
2022/05/11 02:36:54;;;;;;;14.30;11.15;;;;;;;;;;5038372;28;20045;-81
2022/05/11 02:39:20;;;;;;;17.38;10.85;;;;;;;;;;5041178;28;20040;-81
2022/05/11 02:41:46;;;;;;;19.55;9.68;;;;;;;;;;5040430;28;20103;-83
2022/05/11 02:44:12;;;;;;;16.25;9.88;;;;;;;;;;5039275;28;20049;-81
2022/05/11 02:46:39;;;;;;;14.02;9.45;;;;;;;;;;5039831;28;20142;-81
2022/05/11 02:49:05;;;;;;;11.10;8.80;;;;;;;;;;5041133;28;20044;-82
2022/05/11 02:51:32;;;;;;;18.85;9.60;;;;;;;;;;5040347;28;20448;-83
2022/05/11 02:53:58;;;;;;;12.60;8.82;;;;;;;;;;5039142;28;20060;-83
2022/05/11 02:56:25;;;;;;;17.58;8.82;;;;;;;;;;5041175;28;20406;-82
2022/05/11 02:58:51;;;;;;;15.50;8.77;;;;;;;;;;5018687;28;20493;-81
2022/05/11 03:01:18;;;;;;;14.90;8.95;;;;;;;;;;5037097;28;20524;-82
2022/05/11 03:03:45;;;;;;;16.05;8.52;;;;;;;;;;5039307;28;20045;-82
2022/05/11 03:06:13;;;;;;;16.10;9.18;;;;;;;;;;5038846;28;20037;-82
2022/05/11 03:08:39;;;;;;;13.13;8.98;;;;;;;;;;5027627;28;20044;-83
2022/05/11 03:11:06;;;;;;;19.58;9.38;;;;;;;;;;5039212;28;20047;-81
2022/05/11 03:13:32;;;;;;;14.63;8.82;;;;;;;;;;5041538;28;20044;-82
2022/05/11 03:16:05;;;;;;;12.20;8.35;;;;;;;;;;5039724;28;20525;-82
2022/05/11 03:18:31;;;;;;;14.38;9.40;;;;;;;;;;5040214;28;20045;-81
2022/05/11 03:20:58;;;;;;;12.77;8.45;;;;;;;;;;5020554;28;20048;-82
2022/05/11 03:23:25;;;;;;;16.88;8.48;;;;;;;;;;5048096;28;20056;-81
2022/05/11 03:25:52;;;;;;;13.45;8.18;;;;;;;;;;5026827;28;20119;-82
2022/05/11 03:28:18;;;;;;;15.32;8.90;;;;;;;;;;5060907;28;20040;-82
2022/05/11 03:30:44;;;;;;;12.32;8.82;;;;;;;;;;5057850;28;20397;-82
2022/05/11 03:35:55;;;;;;;12.88;8.35;;;;;;;;;;5061161;28;20091;-82
2022/05/11 03:38:28;;;;;;;18.48;8.95;;;;;;;;;;5039029;28;20052;-81
2022/05/11 03:40:54;;;;;;;16.60;8.80;;;;;;;;;;5059338;28;20090;-82
2022/05/11 03:43:22;;;;;;;14.75;8.00;;;;;;;;;;5060964;28;20040;-82
2022/05/11 03:45:48;;;;;;;14.43;8.77;;;;;;;;;;5059826;28;20105;-82
2022/05/11 03:48:16;;;;;;;15.85;7.55;;;;;;;;;;5041007;28;20139;-81
2022/05/11 03:50:43;;;;;;;12.70;8.20;;;;;;;;;;5059072;28;20044;-82
2022/05/11 03:53:09;;;;;;;10.63;7.95;;;;;;;;;;5060954;28;20095;-82
2022/05/11 03:55:35;;;;;;;16.38;8.40;;;;;;;;;;5059914;28;20412;-82
2022/05/11 03:58:02;;;;;;;15.32;7.65;;;;;;;;;;5060431;28;20498;-83
2022/05/11 04:00:28;;;;;;;11.90;7.63;;;;;;;;;;5039517;28;20033;-83
2022/05/11 04:02:55;;;;;;;10.88;7.43;;;;;;;;;;5065052;28;20056;-83
2022/05/11 04:05:22;;;;;;;15.32;7.72;;;;;;;;;;5033049;28;20040;-82
2022/05/11 04:07:48;;;;;;;11.32;6.90;;;;;;;;;;5074574;28;20467;-82
2022/05/11 04:10:15;;;;;;;14.50;7.63;;;;;;;;;;5062037;28;20045;-82
2022/05/11 04:12:41;;;;;;;13.05;7.60;;;;;;;;;;5061057;28;20048;-81
2022/05/11 04:15:07;;;;;;;12.77;6.75;;;;;;;;;;5059706;28;20071;-81
2022/05/11 04:17:34;;;;;;;9.68;6.88;;;;;;;;;;5041980;28;20040;-81
2022/05/11 04:20:00;;;;;;;12.98;7.18;;;;;;;;;;5023023;28;20040;-81
2022/05/11 04:22:27;;;;;;;14.07;7.25;;;;;;;;;;5041590;28;20450;-82
2022/05/11 04:24:53;;;;;;;15.73;6.95;;;;;;;;;;5058038;28;20129;-82
2022/05/11 04:27:19;;;;;;;12.18;6.78;;;;;;;;;;5059048;28;20087;-82
2022/05/11 04:29:45;;;;;;;11.45;6.68;;;;;;;;;;5040943;28;20075;-81
2022/05/11 04:32:11;;;;;;;14.13;7.60;;;;;;;;;;5059747;28;20105;-82
2022/05/11 04:34:40;;;;;;;13.93;6.93;;;;;;;;;;5061059;28;20064;-81
2022/05/11 04:37:07;;;;;;;12.10;6.90;;;;;;;;;;5060181;28;20070;-82
2022/05/11 04:39:34;;;;;;;12.85;6.90;;;;;;;;;;5011915;28;20047;-81
2022/05/11 04:42:00;;;;;;;11.50;7.30;;;;;;;;;;5045592;28;20542;-84
2022/05/11 04:44:26;;;;;;;12.73;7.28;;;;;;;;;;5045299;28;20064;-83
2022/05/11 04:46:52;;;;;;;13.20;7.40;;;;;;;;;;5063397;28;20036;-84
2022/05/11 04:49:21;;;;;;;14.73;6.85;;;;;;;;;;5042387;28;20077;-83
2022/05/11 04:51:48;;;;;;;12.35;7.13;;;;;;;;;;5062984;28;20040;-82
2022/05/11 04:54:14;;;;;;;13.10;7.15;;;;;;;;;;5063196;28;20052;-83
2022/05/11 04:56:40;;;;;;;12.40;7.43;;;;;;;;;;5061734;28;20484;-82
2022/05/11 04:59:08;;;;;;;10.35;7.20;;;;;;;;;;5061966;28;20103;-84
2022/05/11 05:01:34;;;;;;;11.38;7.43;;;;;;;;;;5061574;28;20045;-82
2022/05/11 05:04:01;;;;;;;16.17;7.32;;;;;;;;;;5060867;28;20047;-83
2022/05/11 05:06:28;;;;;;;14.20;7.80;;;;;;;;;;5062116;28;20032;-84
2022/05/11 05:08:55;;;;;;;13.75;7.18;;;;;;;;;;5061498;28;20044;-82
2022/05/11 05:11:21;;;;;;;12.07;7.50;;;;;;;;;;5043357;28;20468;-83
2022/05/11 05:13:47;;;;;;;13.32;7.38;;;;;;;;;;5062179;28;20036;-83
2022/05/11 05:16:13;;;;;;;13.88;7.40;;;;;;;;;;5043229;28;20045;-83
2022/05/11 05:18:39;;;;;;;12.00;7.22;;;;;;;;;;5061369;28;20052;-81
2022/05/11 05:21:06;;;;;;;10.25;7.13;;;;;;;;;;5061389;28;20040;-84
2022/05/11 05:23:34;;;;;;;11.32;7.13;;;;;;;;;;5060822;28;20049;-83
2022/05/11 05:26:09;;;;;;;15.40;7.53;;;;;;;;;;5042636;28;20048;-84
2022/05/11 05:31:21;;;;;;;13.77;7.20;;;;;;;;;;5044641;28;20408;-82
2022/05/11 05:33:53;;;;;;;13.25;7.13;;;;;;;;;;5061401;28;20117;-82
2022/05/11 05:36:30;;;;;;;18.83;7.60;;;;;;;;;;5061721;28;20029;-82
2022/05/11 05:38:58;;;;;;;18.83;7.97;;;;;;;;;;5059167;28;20170;-82
2022/05/11 05:41:24;;;;;;;18.50;6.68;;;;;;;;;;5062092;28;20385;-81
2022/05/11 05:43:51;;;;;;;16.05;7.25;;;;;;;;;;5027849;28;20055;-82
2022/05/11 05:46:17;;;;;;;13.05;7.00;;;;;;;;;;5044250;28;20052;-82
2022/05/11 05:48:43;;;;;;;17.48;6.93;;;;;;;;;;5043091;28;20052;-81
2022/05/11 05:51:10;;;;;;;12.85;6.80;;;;;;;;;;5061229;28;20775;-82
2022/05/11 05:53:39;;;;;;;15.15;6.57;;;;;;;;;;5062316;28;20079;-83
2022/05/11 05:56:12;;;;;;;20.60;7.22;;;;;;;;;;5026373;28;20784;-83
2022/05/11 05:58:38;;;;;;;14.52;6.63;;;;;;;;;;5061845;28;20084;-82
2022/05/11 06:01:05;;;;;;;16.73;6.85;;;;;;;;;;5059405;28;20505;-83
2022/05/11 06:03:33;;;;;;;15.18;6.38;;;;;;;;;;5027231;28;20046;-83
2022/05/11 06:05:59;;;;;;;13.65;6.18;;;;;;;;;;5060874;28;20036;-82
2022/05/11 06:08:25;;;;;;;11.98;6.65;;;;;;;;;;5009050;28;20131;-82
2022/05/11 06:10:56;;;;;;;10.57;5.75;;;;;;;;;;5041375;28;20475;-82
2022/05/11 06:13:24;;;;;;;11.73;5.70;;;;;;;;;;5040907;28;20500;-83
2022/05/11 06:15:52;;;;;;;10.93;6.00;;;;;;;;;;5029827;28;20053;-82
2022/05/11 06:18:18;;;;;;;13.65;6.50;;;;;;;;;;5059741;28;20052;-83
2022/05/11 06:20:45;;;;;;;10.40;5.80;;;;;;;;;;5023189;28;20044;-82
2022/05/11 06:23:11;;;;;;;15.35;5.88;;;;;;;;;;5043741;28;20341;-83
2022/05/11 06:25:38;;;;;;;16.48;6.18;;;;;;;;;;5044034;28;20052;-83
2022/05/11 06:28:10;;;;;;;19.23;6.00;;;;;;;;;;5047988;28;20048;-83
2022/05/11 06:30:36;;;;;;;15.25;5.65;;;;;;;;;;5030675;28;20052;-83
2022/05/11 06:33:03;;;;;;;14.68;5.65;;;;;;;;;;5066260;28;20036;-83
2022/05/11 06:35:30;;;;;;;13.20;5.70;;;;;;;;;;5065889;28;20046;-83
2022/05/11 06:38:01;;;;;;;18.00;6.20;;;;;;;;;;5066154;28;20473;-83
2022/05/11 06:40:27;;;;;;;17.38;6.25;;;;;;;;;;5047862;28;20051;-83
2022/05/11 06:42:53;;;;;;;13.63;6.20;;;;;;;;;;5069383;28;20040;-83
2022/05/11 06:45:19;;;;;;;15.55;7.10;;;;;;;;;;5073867;28;20041;-82
2022/05/11 06:47:49;;;;;;;16.50;6.35;;;;;;;;;;5079467;28;20040;-83
2022/05/11 06:50:16;;;;;;;16.10;6.18;;;;;;;;;;5061605;28;20118;-81
2022/05/11 06:52:42;;;;;;;15.38;5.88;;;;;;;;;;5057957;28;20052;-82
2022/05/11 07:01:20;;;;;;;14.50;5.80;;;;;;;;;;5053449;28;20075;-83
2022/05/11 07:03:46;;;;;;;14.55;6.60;;;;;;;;;;5044965;28;20080;-83
2022/05/11 07:06:15;;;;;;;11.88;6.05;;;;;;;;;;5063158;28;20036;-83
2022/05/11 07:08:42;;;;;;;16.92;6.60;;;;;;;;;;5063590;28;20045;-83
2022/05/11 07:13:55;;;;;;;14.07;6.93;;;;;;;;;;5035970;28;20063;-82
2022/05/11 07:16:23;;;;;;;14.55;5.88;;;;;;;;;;5046693;28;20060;-82
2022/05/11 07:18:49;;;;;;;16.63;6.32;;;;;;;;;;5046602;28;20052;-83
2022/05/11 07:21:15;;;;;;;18.70;6.50;;;;;;;;;;5044147;28;20044;-80
2022/05/11 07:26:45;;;;;;;16.85;6.47;;;;;;;;;;5036326;28;20597;-83
2022/05/11 07:29:22;;;;;;;15.50;7.15;;;;;;;;;;5043688;28;20449;-82
2022/05/11 07:31:48;;;;;;;17.80;6.47;;;;;;;;;;5011227;28;20045;-83
2022/05/11 07:34:15;;;;;;;17.92;6.50;;;;;;;;;;5041126;28;20045;-84
2022/05/11 07:36:42;;;;;;;19.05;6.82;;;;;;;;;;5043113;28;20045;-84
2022/05/11 07:39:11;;;;;;;18.77;7.10;;;;;;;;;;5009372;28;20049;-83
2022/05/11 07:41:38;;;;;;;16.45;6.18;;;;;;;;;;5044508;28;20036;-82
2022/05/11 07:44:04;;;;;;;14.85;6.97;;;;;;;;;;5025548;28;20064;-84
2022/05/11 07:46:34;;;;;;;17.20;7.00;;;;;;;;;;5043108;28;20804;-85
2022/05/11 07:49:06;;;;;;;22.90;6.15;;;;;;;;;;5008227;28;20439;-84
2022/05/11 07:51:35;;;;;;;21.33;7.35;;;;;;;;;;5038707;28;20697;-81
2022/05/11 07:54:01;;;;;;;22.08;6.35;;;;;;;;;;5034175;28;20041;-82
2022/05/11 08:01:56;;;;;;;21.17;6.75;;;;;;;;;;5026860;28;20064;-82
2022/05/11 08:04:22;;;;;;;16.60;6.20;;;;;;;;;;5024162;28;20373;-83
2022/05/11 08:06:48;;;;;;;10.75;5.13;;;;;;;;;;5032839;28;20108;-83
2022/05/11 08:09:14;;;;;;;15.32;5.45;;;;;;;;;;5034224;28;20139;-83
2022/05/11 08:11:41;;;;;;;15.95;6.10;;;;;;;;;;5025678;28;20088;-82
2022/05/11 08:14:07;;;;;;;18.63;5.88;;;;;;;;;;5027785;28;20539;-83
2022/05/11 08:16:39;;;;;;;18.85;6.55;;;;;;;;;;5051004;28;20105;-84
2022/05/11 08:19:05;;;;;;;17.35;5.50;;;;;;;;;;5051709;28;20474;-81
2022/05/11 08:21:33;;;;;;;17.25;5.40;;;;;;;;;;5059250;28;20069;-81
2022/05/11 08:24:00;;;;;;;18.10;5.35;;;;;;;;;;5059475;28;20049;-80
2022/05/11 08:26:26;;;;;;;14.05;5.45;;;;;;;;;;5057537;28;20052;-81
2022/05/11 08:28:53;;;;;;;19.55;5.90;;;;;;;;;;5061773;28;20479;-80
2022/05/11 08:34:04;;;;;;;19.00;4.80;;;;;;;;;;5046120;28;20075;-81
2022/05/11 08:36:30;;;;;;;19.00;5.00;;;;;;;;;;5039813;28;20057;-81
2022/05/11 08:38:57;;;;;;;17.95;4.78;;;;;;;;;;5042599;28;20036;-81
2022/05/11 08:41:32;;;;;;;18.30;5.13;;;;;;;;;;5043735;28;20047;-83
2022/05/11 08:44:01;;;;;;;11.18;5.10;;;;;;;;;;5039816;28;20069;-82
2022/05/11 08:46:29;;;;;;;16.63;5.20;;;;;;;;;;5042637;28;20037;-81
2022/05/11 08:48:59;;;;;;;13.85;4.15;;;;;;;;;;5035583;28;20044;-83
2022/05/11 08:51:37;;;;;;;17.17;4.50;;;;;;;;;;5041641;28;20476;-81
2022/05/11 08:54:16;;;;;;;15.00;5.15;;;;;;;;;;5037358;28;20037;-80
2022/05/11 08:56:44;;;;;;;20.92;5.15;;;;;;;;;;5006151;28;20037;-82
2022/05/11 08:59:21;;;;;;;19.63;5.00;;;;;;;;;;5021637;28;20037;-83
2022/05/11 09:01:55;;;;;;;19.90;3.90;;;;;;;;;;5035472;28;20198;-81
2022/05/11 09:04:31;;;;;;;13.35;4.03;;;;;;;;;;5023177;28;20049;-83
2022/05/11 09:06:57;;;;;;;19.23;4.35;;;;;;;;;;5016192;28;20049;-81
2022/05/11 09:09:24;;;;;;;13.50;4.65;;;;;;;;;;5038776;28;20044;-82
2022/05/11 09:11:52;;;;;;;16.52;4.88;;;;;;;;;;5038961;28;20519;-82
2022/05/11 09:14:35;;;;;;;14.48;4.60;;;;;;;;;;5036194;28;20483;-81
2022/05/11 09:17:01;;;;;;;15.93;3.97;;;;;;;;;;5019121;28;20060;-81
2022/05/11 09:19:29;;;;;;;15.80;3.30;;;;;;;;;;5019432;28;20087;-82
2022/05/11 09:22:19;;;;;;;13.48;3.85;;;;;;;;;;5027602;28;20399;-80
2022/05/11 09:24:49;;;;;;;12.10;3.70;;;;;;;;;;5030911;28;20107;-81
2022/05/11 09:27:24;;;;;;;10.65;3.00;;;;;;;;;;5024716;28;20042;-81
2022/05/11 09:30:01;;;;;;;11.15;3.67;;;18.10;99.90;;;;;;5024585;28;20060;-82
2022/05/11 09:32:37;;;;;;;11.95;3.03;;;;;;;;;;5041927;28;20155;-82
2022/05/11 09:35:24;;;;;;;11.05;3.53;;;;;;;;;;5042294;28;20045;-81
2022/05/11 09:38:01;;;;;;;12.30;3.75;;;;;;;;;;5042216;28;20063;-82
2022/05/11 09:40:29;;;;;;;12.90;3.47;;;;;;;;;;5043723;28;20036;-81
2022/05/11 09:42:55;;;;;;;10.10;2.67;;;;;;;;;;5040659;28;20087;-81
2022/05/11 09:45:38;;;;;;;11.75;3.95;;;;;;;;;;5040719;28;20086;-82
2022/05/11 09:48:16;;;;;;;16.05;3.88;;;;;;;;;;5025558;28;20037;-82
2022/05/11 09:50:43;;;;;;;13.13;2.88;;;;;;;;;;5007157;28;20061;-82
2022/05/11 09:53:30;;;;;;;9.02;2.33;;;;;;;;;;5010318;28;20091;-81
2022/05/11 09:55:56;;;;;;;10.43;3.30;;;;;;;;;;5026380;28;20041;-82
2022/05/11 09:58:28;;;;;;;11.18;2.63;;;;;;;;;;5045340;28;20570;-82
2022/05/11 10:01:06;;;;;;;16.38;2.42;;;;;;;;;;5047168;28;20390;-82
2022/05/11 10:03:33;;;;;;;15.77;3.10;;;;;;;;;;5045113;28;20125;-82
2022/05/11 10:06:03;;;;;;;9.93;2.28;;;;;;;;;;5046492;28;20501;-82
2022/05/11 10:08:32;;;;;;;10.10;3.10;;;;;;;;;;5046392;28;20074;-81
2022/05/11 10:11:11;;;;;;;9.65;2.63;;;;;;;;;;5031495;28;20064;-82
2022/05/11 10:13:40;;;;;;;12.68;2.60;;;;;;;;;;5008324;28;20132;-82
2022/05/11 10:21:56;;;;;;;12.95;2.47;;;;;;;;;;5022516;28;20111;-82
2022/05/11 10:24:22;;;;;;;13.30;2.53;;;;;;;;;;5046220;28;20045;-81
2022/05/11 10:26:51;;;;;;;11.77;2.58;;;;;;;;;;5009025;28;20054;-82
2022/05/11 10:29:44;;;;;;;10.38;2.65;;;19.60;99.90;;;;;;5006753;28;20053;-82
2022/05/11 10:32:14;;;;;;;9.15;2.60;;;;;;;;;;5008444;28;20107;-83
2022/05/11 10:35:08;;;;;;;11.57;3.05;;;19.90;99.90;;;;;;4987723;28;20547;-83
2022/05/11 10:37:52;;;;;;;17.60;4.10;;;;;;;;;;5006513;28;20072;-83
2022/05/11 10:40:27;;;;;;;14.48;3.90;;;;;;;;;;5016005;28;20052;-83
2022/05/11 10:43:13;;;;;;;8.20;2.28;;;;;;;;;;5006872;28;20101;-82
2022/05/11 10:45:47;;;;;;;11.68;2.90;;;;;;;;;;5025724;28;20313;-82
2022/05/11 10:48:16;;;;;;;9.40;2.78;;;;;;;;;;5005599;28;20100;-83
2022/05/11 10:50:50;;;;;;;12.70;3.30;;;;;;;;;;5007862;28;20045;-83
2022/05/11 10:53:16;;;;;;;10.85;3.33;;;;;;;;;;5005543;28;20046;-84
2022/05/11 10:55:56;;;;;;;12.52;3.42;;;;;;;;;;5002573;28;20065;-82
2022/05/11 10:58:22;;;;;;;16.60;3.90;;;;;;;;;;5006934;28;20053;-83
2022/05/11 11:01:11;;;;;;;10.02;3.00;;;;;;;;;;5008198;28;20148;-83
2022/05/11 11:03:47;;;;;;;9.07;2.85;;;;;;;;;;4997534;28;20065;-82
2022/05/11 11:09:30;;;;;;;7.53;2.55;;;;;;;;;;4999239;28;20509;-83
2022/05/11 11:12:15;;;;;;;12.70;3.28;;;;;;;;;;5010799;28;20121;-83
2022/05/11 11:14:44;;;;;;;7.72;2.05;;;;;;;;;;5024704;28;20477;-83
2022/05/11 11:17:12;;;;;;;9.40;3.15;;;;;;;;;;5026254;28;20163;-82
2022/05/11 11:19:43;;;;;;;11.85;2.50;;;;;;;;;;5025846;28;20045;-82
2022/05/11 11:22:09;;;;;;;9.63;2.92;;;;;;;;;;5024904;28;20120;-82
2022/05/11 11:24:41;;;;;;;9.43;2.45;;;;;;;;;;5029879;28;20151;-83
2022/05/11 11:27:09;;;;;;;14.10;2.60;;;;;;;;;;5052971;28;20055;-83
2022/05/11 11:29:36;;;;;;;11.15;2.70;;;;;;;;;;5028997;28;20053;-83
2022/05/11 11:32:12;;;;;;;12.75;3.08;;;;;;;;;;5043742;28;20049;-79
2022/05/11 11:34:41;;;;;;;14.93;3.33;;;;;;;;;;5046238;28;20106;-83
2022/05/11 11:37:37;;;;;;;11.75;3.45;;;;;;;;;;5045021;28;20452;-83
2022/05/11 11:40:15;;;;;;;11.07;2.50;;;;;;;;;;4989061;28;20068;-82
2022/05/11 11:42:45;;;;;;;8.20;2.65;;;;;;;;;;5025868;28;20041;-84
2022/05/11 11:45:26;;;;;;;13.15;2.72;;;;;;;;;;5024698;28;20033;-82
2022/05/11 11:48:03;;;;;;;9.30;2.45;;;;;;;;;;5034461;28;20128;-81
2022/05/11 11:50:47;;;;;;;13.90;3.05;;;;;;;;;;5045086;28;20033;-82
2022/05/11 11:53:30;;;;;;;12.63;3.30;;;;;;;;;;5028634;28;20139;-84
2022/05/11 11:55:56;;;;;;;14.13;2.90;;;;;;;;;;5048131;28;20658;-84
2022/05/11 11:58:35;;;;;;;13.00;3.15;;;;;;;;;;5040710;28;20057;-85
2022/05/11 12:01:15;;;;;;;13.57;2.80;;;;;;;;;;5034523;28;20037;-85
2022/05/11 12:03:52;;;;;;;10.40;2.90;;;;;;;;;;5034755;28;20079;-84
2022/05/11 12:15:02;;;;;;;15.05;2.80;;;;;;;;;;5025816;28;20103;-85
2022/05/11 12:17:34;;;;;;;11.90;2.92;;;;;;;;;;5006219;28;20057;-84
2022/05/11 12:20:17;;;;;;;11.82;3.00;;;;;;;;;;5029409;28;20044;-84
2022/05/11 12:22:46;;;;;;;8.43;2.92;;;;;;;;;;5007043;28;20520;-85
2022/05/11 12:25:26;;;;;;;13.02;3.13;;;;;;;;;;5041470;28;20075;-83
2022/05/11 12:27:53;;;;;;;12.48;3.63;;;;;;;;;;5033593;28;20104;-82
2022/05/11 12:30:25;;;;;;;15.13;3.35;;;;;;;;;;5016736;28;20049;-84
2022/05/11 12:33:01;;;;;;;9.00;2.80;;;;;;;;;;5033222;28;20088;-84
2022/05/11 12:35:29;;;;;;;15.25;3.50;;;;;;;;;;5038583;28;20065;-83
2022/05/11 12:38:14;;;;;;;17.95;2.97;;;;;;;;;;5048192;28;20041;-85
2022/05/11 12:40:52;;;;;;;13.00;2.60;;;;;;;;;;5016908;28;20049;-85
2022/05/11 12:43:21;;;;;;;12.73;2.85;;;;;;;;;;5046712;28;20869;-82
2022/05/11 12:45:48;;;;;;;12.18;2.70;;;;;;;;;;5032942;28;20045;-85
2022/05/11 12:48:23;;;;;;;13.48;3.05;;;;;;;;;;5024643;28;20044;-84
2022/05/11 12:51:09;;;;;;;10.88;2.95;;;;;;;;;;5025922;28;20110;-83
2022/05/11 12:53:36;;;;;;;14.43;2.55;;;;;;;;;;5042271;28;20049;-84
2022/05/11 12:56:08;;;;;;;9.15;2.70;;;;;;;;;;5051106;28;20056;-84
2022/05/11 12:58:36;;;;;;;11.10;2.53;;;;;;;;;;5051223;28;20135;-83
2022/05/11 13:01:03;;;;;;;6.95;2.03;;;;;;;;;;5055095;28;20473;-84
2022/05/11 13:03:34;;;;;;;6.70;1.58;;;;;;;;;;5035699;28;20106;-84
2022/05/11 13:06:05;;;;;;;10.75;1.75;;;;;;;;;;5049479;28;20053;-84
2022/05/11 13:08:35;;;;;;;7.70;2.20;;;;;;;;;;5029854;28;20048;-84
2022/05/11 13:11:10;;;;;;;8.73;2.15;;;;;;;;;;5054512;28;20049;-85
2022/05/11 13:13:37;;;;;;;8.05;1.67;;;;;;;;;;5038629;28;20053;-85
2022/05/11 13:16:05;;;;;;;5.88;1.67;;;;;;;;;;5043324;28;20053;-85
2022/05/11 13:18:32;;;;;;;7.68;1.92;;;;;;;;;;5011900;28;20053;-85
2022/05/11 13:21:00;;;;;;;10.98;1.90;;;;;;;;;;4980144;28;20056;-85
2022/05/11 13:23:47;;;;;;;6.70;1.50;;;;;;;;;;5037790;28;20092;-86
2022/05/11 13:26:35;;;;;;;6.65;1.50;;;;;;;;;;5054987;28;20119;-84
2022/05/11 13:29:20;;;;;;;8.30;1.98;;;;;;;;;;5053192;28;20045;-86
2022/05/11 13:32:00;;;;;;;5.65;1.10;;;;;;;;;;5047116;28;20041;-84
2022/05/11 13:34:37;;;;;;;7.80;1.85;;;;;;;;;;5054905;28;20040;-86
2022/05/11 13:37:04;;;;;;;6.25;1.00;;;;;;;;;;5055470;28;20170;-86
2022/05/11 13:39:35;;;;;;;6.80;1.33;;;;;;;;;;5020229;28;20044;-84
2022/05/11 13:42:03;;;;;;;5.50;1.15;;;;;;;;;;5042587;28;20041;-86
2022/05/11 13:45:17;;;;;;;9.07;1.15;;;;;;;;;;5044761;28;20056;-83
2022/05/11 13:50:48;;;;;;;8.27;1.40;;;;;;;;;;5010997;28;20104;-85
2022/05/11 13:53:31;;;;;;;3.85;1.35;;;;;;;;;;5010057;28;20068;-86
2022/05/11 13:55:59;;;;;;;8.60;1.85;;;;;;;;;;5007042;28;20099;-86
2022/05/11 13:58:33;;;;;;;7.88;1.92;;;;;;;;;;5010147;28;20054;-86
2022/05/11 14:01:20;;;;;;;11.05;1.48;;;;;;;;;;5010244;28;20121;-84
2022/05/11 14:03:57;;;;;;;6.45;1.73;;;;;;;;;;5015334;28;20046;-86
2022/05/11 14:06:25;;;;;;;8.93;2.22;;;;;;;;;;4972872;28;20088;-85
2022/05/11 14:08:51;;;;;;;8.55;1.88;;;;;;;;;;4974104;28;20072;-86
2022/05/11 14:11:18;;;;;;;8.77;1.98;;;;;;;;;;5002856;28;20609;-84
2022/05/11 14:13:45;;;;;;;15.25;2.60;;;;;;;;;;4987383;28;20061;-84
2022/05/11 14:16:13;;;;;;;10.52;2.53;;;;;;;;;;5004212;28;20112;-85
2022/05/11 14:18:41;;;;;;;11.10;2.50;;;;;;;;;;5023395;28;20191;-84
2022/05/11 14:21:07;;;;;;;14.48;2.22;;;;;;;;;;5047675;28;20236;-85
2022/05/11 14:23:39;;;;;;;10.32;2.15;;;;;;;;;;5041837;28;20060;-85
2022/05/11 14:26:05;;;;;;;11.27;2.72;;;;;;;;;;5027057;28;20055;-86
2022/05/11 14:28:31;;;;;;;15.88;2.78;;;;;;;;;;5043857;28;20155;-85
2022/05/11 14:31:29;;;;;;;8.73;2.03;;;;;;;;;;5044985;28;20041;-87
2022/05/11 14:33:58;;;;;;;9.63;1.98;;;;;;;;;;4982201;28;20046;-87
2022/05/11 14:36:27;;;;;;;16.90;3.10;;;;;;;;;;5044097;28;20107;-86
2022/05/11 14:39:16;;;;;;;14.23;2.78;;;;;;;;;;5040939;28;20061;-85
2022/05/11 14:41:45;;;;;;;17.63;3.95;;;;;;;;;;5046021;28;20072;-86
2022/05/11 14:44:14;;;;;;;13.13;2.78;;;;;;;;;;5008609;28;20051;-87
2022/05/11 14:46:53;;;;;;;13.00;3.00;;;;;;;;;;5000772;28;20053;-86
2022/05/11 14:52:39;;;;;;;15.70;3.42;;;;;;;;;;4978305;28;20528;-85
2022/05/11 14:55:06;;;;;;;12.82;2.92;;;;;;;;;;4959837;28;20057;-84
2022/05/11 15:03:36;;;;;;;9.13;2.15;;;;;;;;;;5010827;28;20051;-85
2022/05/11 15:06:03;;;;;;;15.13;2.97;;;;;;;;;;5012129;28;20176;-83
2022/05/11 15:08:51;;;;;;;11.35;3.00;;;;;;;;;;5011914;28;20152;-87
2022/05/11 15:14:28;;;;;;;13.70;2.83;;;;;;;;;;5015179;28;20048;-88
2022/05/11 15:17:13;;;;;;;15.95;3.15;;;;;;;;;;4995774;28;20046;-83
2022/05/11 15:19:48;;;;;;;10.73;2.42;;;;;;;;;;4998217;28;20119;-87
2022/05/11 15:22:14;;;;;;;11.75;2.08;;;;;;;;;;5014290;28;20045;-83
2022/05/11 15:24:41;;;;;;;7.82;2.10;;;;;;;;;;5022417;28;20045;-85
2022/05/11 15:27:13;;;;;;;10.07;2.08;;;;;;;;;;5019686;28;20117;-86
2022/05/11 15:29:59;;;;;;;11.20;2.38;;;;;;;;;;5003953;28;20538;-85
2022/05/11 15:32:26;;;;;;;11.02;2.13;;;;;;;;;;5017350;28;20041;-84
2022/05/11 15:34:58;;;;;;;9.52;2.17;;;;;;;;;;5013149;28;20045;-83
2022/05/11 15:37:24;;;;;;;11.00;2.20;;;;;;;;;;5035410;28;20183;-85
2022/05/11 15:39:53;;;;;;;9.48;2.53;;;;;;;;;;5017996;28;20489;-83
2022/05/11 15:42:23;;;;;;;13.60;2.47;;;;;;;;;;5007135;28;20048;-87
2022/05/11 15:44:53;;;;;;;5.22;1.55;;;;;;;;;;5018768;28;20041;-85
2022/05/11 15:47:20;;;;;;;10.32;1.55;;;;;;;;;;5029438;28;20052;-83